Time;durP1;ratioP1;P1;durP2;ratioP2;P2;SDS_P1;SDS_P2;PMS_P1;PMS_P2;Temp;Humidity;BMP_temperature;BMP_pressure;BME280_temperature;BME280_humidity;BME280_pressure;Samples;Min_cycle;Max_cycle;Signal;HPM_P1;HPM_P2
2023/05/01 00:00:55;;;;;;;73.07;34.38;;;;;;;;;;5070588;28;20032;-59
2023/05/01 00:03:21;;;;;;;68.70;33.67;;;;;;;;;;5070716;28;20021;-59
2023/05/01 00:05:47;;;;;;;82.30;37.17;;;;;;;;;;5070807;28;20043;-59
2023/05/01 00:08:14;;;;;;;79.53;36.78;;;;;;;;;;5070631;28;20028;-59
2023/05/01 00:10:41;;;;;;;75.15;35.05;;;;;;;;;;5070881;28;20043;-60
2023/05/01 00:13:08;;;;;;;91.90;39.78;;;;;;;;;;5070590;28;20021;-59
2023/05/01 00:15:35;;;;;;;87.47;38.35;;;;;;;;;;5070478;28;20516;-60
2023/05/01 00:18:01;;;;;;;90.53;39.25;;;;;;;;;;5070663;28;20029;-60
2023/05/01 00:20:28;;;;;;;84.22;37.97;;;;;;;;;;5070487;28;20536;-59
2023/05/01 00:22:54;;;;;;;86.22;39.53;;;;;;;;;;5070496;28;20024;-59
2023/05/01 00:25:20;;;;;;;84.50;37.75;;;;;;;;;;5070655;28;20058;-59
2023/05/01 00:27:47;;;;;;;90.10;37.20;;;;;;;;;;5070425;28;20021;-59
2023/05/01 00:30:13;;;;;;;84.90;36.83;;;;;;;;;;5070571;28;20067;-59
2023/05/01 00:32:39;;;;;;;87.03;38.58;;;;;;;;;;5070592;28;20539;-59
2023/05/01 00:35:05;;;;;;;89.13;38.50;;;;;;;;;;5070441;28;20522;-60
2023/05/01 00:37:31;;;;;;;77.65;37.05;;;;;;;;;;5070334;28;20047;-59
2023/05/01 00:39:57;;;;;;;83.45;37.50;;;;;;;;;;5070448;28;20093;-59
2023/05/01 00:42:23;;;;;;;85.88;38.95;;;;;;;;;;5070639;28;20103;-60
2023/05/01 00:44:49;;;;;;;80.10;36.97;;;;;;;;;;5073999;28;20024;-59
2023/05/01 00:47:15;;;;;;;89.78;39.05;;;;;;;;;;5073789;28;20100;-59
2023/05/01 00:49:42;;;;;;;89.05;39.22;;;;;;;;;;5073956;28;20028;-59
2023/05/01 00:52:08;;;;;;;85.47;39.58;;;;;;;;;;5073876;28;20216;-59
2023/05/01 00:54:35;;;;;;;90.75;40.63;;;;;;;;;;5073825;28;20025;-59
2023/05/01 00:57:02;;;;;;;85.57;40.20;;;;;;;;;;5073704;28;20408;-59
2023/05/01 00:59:28;;;;;;;95.13;41.85;;;;;;;;;;5073395;28;20074;-59
2023/05/01 01:01:54;;;;;;;100.10;44.65;;;;;;;;;;5073614;28;20032;-59
2023/05/01 01:04:20;;;;;;;98.05;44.58;;;;;;;;;;5073665;28;20492;-59
2023/05/01 01:06:58;;;;;;;99.07;42.85;;;;;;;;;;5073442;28;20033;-59
2023/05/01 01:09:28;;;;;;;90.03;40.13;;;;;;;;;;5073415;28;20023;-60
2023/05/01 01:12:12;;;;;;;99.80;43.63;;;;;;;;;;5073291;28;20029;-59
2023/05/01 01:14:48;;;;;;;116.35;50.10;;;;;;;;;;5073667;28;20055;-60
2023/05/01 01:17:21;;;;;;;108.88;46.22;;;;;;;;;;5073360;28;20389;-60
2023/05/01 01:20:05;;;;;;;105.38;46.53;;;;;;;;;;5073282;28;20029;-60
2023/05/01 01:22:34;;;;;;;113.63;49.65;;;;;;;;;;5073193;28;20055;-60
2023/05/01 01:25:19;;;;;;;120.28;53.35;;;;;;;;;;5073131;28;20471;-58
2023/05/01 01:27:48;;;;;;;116.43;49.25;;;;;;;;;;5073344;28;20047;-59
2023/05/01 01:30:17;;;;;;;113.78;51.30;;;;;;;;;;5072875;28;20048;-59
2023/05/01 01:33:00;;;;;;;112.07;51.22;;;;;;;;;;5072847;28;20017;-59
2023/05/01 01:35:26;;;;;;;106.32;46.60;;;;;;;;;;5072653;28;20079;-59
2023/05/01 01:38:13;;;;;;;112.38;48.95;;;;;;;;;;5072945;28;20376;-60
2023/05/01 01:40:44;;;;;;;118.30;52.03;;;;;;;;;;5072551;28;20041;-60
2023/05/01 01:43:12;;;;;;;126.90;50.60;;;;;;;;;;5072799;28;20548;-59
2023/05/01 01:45:47;;;;;;;117.88;51.78;;;;;;;;;;5072610;28;20128;-59
2023/05/01 01:48:16;;;;;;;121.28;53.10;;;;;;;;;;5072747;28;20029;-59
2023/05/01 01:50:43;;;;;;;118.63;50.60;;;;;;;;;;5072546;28;20028;-59
2023/05/01 01:53:11;;;;;;;109.43;46.88;;;;;;;;;;5072515;28;20605;-59
2023/05/01 01:55:37;;;;;;;115.47;47.58;;;;;;;;;;5072367;28;20064;-58
2023/05/01 01:58:05;;;;;;;112.13;47.78;;;;;;;;;;5072423;28;20021;-59
2023/05/01 02:00:33;;;;;;;120.28;49.17;;;;;;;;;;5072224;28;20064;-59
2023/05/01 02:03:00;;;;;;;116.18;47.63;;;;;;;;;;5072178;28;20055;-58
2023/05/01 02:05:26;;;;;;;110.18;45.33;;;;;;;;;;5072235;28;20024;-59
2023/05/01 02:07:54;;;;;;;125.50;49.72;;;;;;;;;;5072054;28;20121;-60
2023/05/01 02:10:21;;;;;;;118.60;49.17;;;;;;;;;;5072235;28;20146;-60
2023/05/01 02:12:48;;;;;;;108.20;45.95;;;;;;;;;;5072138;28;20496;-59
2023/05/01 02:15:16;;;;;;;120.15;49.38;;;;;;;;;;5071858;28;20075;-60
2023/05/01 02:17:42;;;;;;;119.93;48.58;;;;;;;;;;5071765;28;20490;-60
2023/05/01 02:20:09;;;;;;;111.10;44.78;;;;;;;;;;5071594;28;20060;-62
2023/05/01 02:22:36;;;;;;;105.57;43.08;;;;;;;;;;5071537;28;20067;-59
2023/05/01 02:25:02;;;;;;;117.32;45.88;;;;;;;;;;5071970;28;20420;-60
2023/05/01 02:27:34;;;;;;;116.95;45.90;;;;;;;;;;5071847;28;20103;-58
2023/05/01 02:30:00;;;;;;;114.90;46.45;;;;;;;;;;5071600;28;20057;-58
2023/05/01 02:32:27;;;;;;;107.93;45.03;;;;;;;;;;5071566;28;20036;-59
2023/05/01 02:34:53;;;;;;;110.25;46.17;;;;;;;;;;5071655;28;20020;-59
2023/05/01 02:37:20;;;;;;;127.25;47.90;;;;;;;;;;5071628;28;20017;-59
2023/05/01 02:39:46;;;;;;;123.60;48.50;;;;;;;;;;5071457;28;20060;-59
2023/05/01 02:42:12;;;;;;;125.47;46.13;;;;;;;;;;5071582;28;20047;-59
2023/05/01 02:44:40;;;;;;;119.60;46.33;;;;;;;;;;5071525;28;20029;-59
2023/05/01 02:47:07;;;;;;;120.80;45.03;;;;;;;;;;5071354;28;20486;-59
2023/05/01 02:49:33;;;;;;;127.50;47.63;;;;;;;;;;5071436;28;20059;-59
2023/05/01 02:51:59;;;;;;;135.43;48.33;;;;;;;;;;5071414;28;20056;-59
2023/05/01 02:54:26;;;;;;;124.50;49.08;;;;;;;;;;5071304;28;20480;-59
2023/05/01 02:56:52;;;;;;;138.18;49.40;;;;;;;;;;5071147;28;20032;-58
2023/05/01 02:59:18;;;;;;;132.13;47.72;;;;;;;;;;5071172;28;20032;-59
2023/05/01 03:01:44;;;;;;;125.32;48.38;;;;;;;;;;5071130;28;20059;-59
2023/05/01 03:04:10;;;;;;;130.15;47.60;;;;;;;;;;5071185;28;20567;-59
2023/05/01 03:06:36;;;;;;;114.07;43.70;;;;;;;;;;5070551;28;20103;-59
2023/05/01 03:09:03;;;;;;;124.68;45.72;;;;;;;;;;5071343;28;20470;-60
2023/05/01 03:11:29;;;;;;;120.30;46.83;;;;;;;;;;5071089;28;20020;-60
2023/05/01 03:13:55;;;;;;;112.75;44.22;;;;;;;;;;5071303;28;20041;-59
2023/05/01 03:16:21;;;;;;;113.00;44.00;;;;;;;;;;5071146;28;20115;-60
2023/05/01 03:18:47;;;;;;;126.50;47.58;;;;;;;;;;5071102;28;20358;-60
2023/05/01 03:21:13;;;;;;;122.65;45.65;;;;;;;;;;5070877;28;20037;-59
2023/05/01 03:23:39;;;;;;;112.10;44.83;;;;;;;;;;5071111;28;20644;-60
2023/05/01 03:26:06;;;;;;;113.10;43.88;;;;;;;;;;5071071;28;20028;-59
2023/05/01 03:28:32;;;;;;;114.18;43.25;;;;;;;;;;5070698;28;20048;-60
2023/05/01 03:30:58;;;;;;;112.78;43.88;;;;;;;;;;5071069;28;20025;-59
2023/05/01 03:33:25;;;;;;;111.75;42.72;;;;;;;;;;5070815;28;20055;-59
2023/05/01 03:36:02;;;;;;;101.45;41.05;;;;;;;;;;5070751;28;20794;-59
2023/05/01 03:38:29;;;;;;;115.97;43.83;;;;;;;;;;5070833;28;20033;-59
2023/05/01 03:40:55;;;;;;;109.35;44.63;;;;;;;;;;5070708;28;20067;-59
2023/05/01 03:43:21;;;;;;;114.93;43.78;;;;;;;;;;5070835;28;20017;-59
2023/05/01 03:45:47;;;;;;;121.22;45.72;;;;;;;;;;5070875;28;20381;-60
2023/05/01 03:48:13;;;;;;;117.00;44.17;;;;;;;;;;5069549;28;20027;-59
2023/05/01 03:50:39;;;;;;;110.68;43.03;;;;;;;;;;5070499;28;20111;-61
2023/05/01 03:53:05;;;;;;;112.43;42.70;;;;;;;;;;5070784;28;20091;-59
2023/05/01 03:55:31;;;;;;;116.22;42.90;;;;;;;;;;5070725;28;20571;-59
2023/05/01 03:57:57;;;;;;;104.45;41.95;;;;;;;;;;5070957;28;20104;-59
2023/05/01 04:00:23;;;;;;;111.32;43.50;;;;;;;;;;5070531;28;20043;-60
2023/05/01 04:02:49;;;;;;;121.65;45.65;;;;;;;;;;5070360;28;20063;-59
2023/05/01 04:05:16;;;;;;;114.47;43.75;;;;;;;;;;5070713;28;20024;-60
2023/05/01 04:07:42;;;;;;;115.50;45.50;;;;;;;;;;5070843;28;20419;-60
2023/05/01 04:10:09;;;;;;;114.20;44.92;;;;;;;;;;5069335;28;20776;-59
2023/05/01 04:12:35;;;;;;;111.00;45.45;;;;;;;;;;5070602;28;20032;-59
2023/05/01 04:15:03;;;;;;;120.03;43.50;;;;;;;;;;5070578;28;20519;-59
2023/05/01 04:17:29;;;;;;;122.18;45.88;;;;;;;;;;5070759;28;20481;-59
2023/05/01 04:19:55;;;;;;;116.47;45.22;;;;;;;;;;5074154;28;20044;-59
2023/05/01 04:22:22;;;;;;;117.85;44.70;;;;;;;;;;5074547;28;20013;-59
2023/05/01 04:24:48;;;;;;;122.10;45.65;;;;;;;;;;5074369;28;20040;-58
2023/05/01 04:27:14;;;;;;;118.63;43.08;;;;;;;;;;5074132;28;20070;-59
2023/05/01 04:29:40;;;;;;;127.10;42.70;;;;;;;;;;5073943;28;20048;-59
2023/05/01 04:32:07;;;;;;;124.32;44.10;;;;;;;;;;5074030;28;20032;-59
2023/05/01 04:34:33;;;;;;;134.77;42.13;;;;;;;;;;5074268;28;20223;-59
2023/05/01 04:37:00;;;;;;;135.13;43.42;;;;;;;;;;5074283;28;20120;-59
2023/05/01 04:39:26;;;;;;;128.48;42.67;;;;;;;;;;5073695;28;20051;-59
2023/05/01 04:41:52;;;;;;;128.13;42.60;;;;;;;;;;5073817;28;20028;-59
2023/05/01 04:44:18;;;;;;;128.85;44.75;;;;;;;;;;5073903;28;20032;-60
2023/05/01 04:46:44;;;;;;;123.90;39.78;;;;;;;;;;5074020;28;20020;-59
2023/05/01 04:49:10;;;;;;;117.03;38.67;;;;;;;;;;5073608;28;20508;-59
2023/05/01 04:51:37;;;;;;;111.80;32.72;;;;;;;;;;5073627;28;20165;-60
2023/05/01 04:54:03;;;;;;;125.07;35.35;;;;;;;;;;5073696;28;20484;-59
2023/05/01 04:56:29;;;;;;;115.78;35.90;;;;;;;;;;5073458;28;20033;-59
2023/05/01 04:58:56;;;;;;;121.30;36.65;;;;;;;;;;5073373;28;20468;-59
2023/05/01 05:01:22;;;;;;;132.77;36.88;;;;;;;;;;5073509;28;20032;-59
2023/05/01 05:03:48;;;;;;;148.23;38.25;;;;;;;;;;5073481;28;20020;-58
2023/05/01 05:06:14;;;;;;;140.63;39.42;;;;;;;;;;5073443;28;20481;-59
2023/05/01 05:08:40;;;;;;;129.57;40.35;;;;;;;;;;5073557;28;20028;-59
2023/05/01 05:11:06;;;;;;;132.43;37.50;;;;;;;;;;5073540;28;20028;-59
2023/05/01 05:13:32;;;;;;;134.95;37.88;;;;;;;;;;5071946;28;20048;-61
2023/05/01 05:15:58;;;;;;;123.43;35.65;;;;;;;;;;5072991;28;20469;-61
2023/05/01 05:18:24;;;;;;;92.28;28.50;;;;;;;;;;5072991;28;20029;-61
2023/05/01 05:20:50;;;;;;;97.53;29.70;;;;;;;;;;5073174;28;20029;-61
2023/05/01 05:23:16;;;;;;;96.65;28.90;;;;;;;;;;5064885;28;20024;-62
2023/05/01 05:25:42;;;;;;;95.07;29.42;;;;;;;;;;5053049;28;20024;-60
2023/05/01 05:28:08;;;;;;;94.78;28.77;;;;;;;;;;5052761;28;20029;-61
2023/05/01 05:30:35;;;;;;;96.43;29.10;;;;;;;;;;5052882;28;20158;-61
2023/05/01 05:33:01;;;;;;;92.38;28.00;;;;;;;;;;5052885;28;20048;-61
2023/05/01 05:35:27;;;;;;;96.35;28.92;;;;;;;;;;5052877;28;20521;-60
2023/05/01 05:37:53;;;;;;;87.38;27.55;;;;;;;;;;5052833;28;20028;-60
2023/05/01 05:40:19;;;;;;;81.57;25.58;;;;;;;;;;5052570;28;20389;-61
2023/05/01 05:42:45;;;;;;;81.93;23.23;;;;;;;;;;5052713;28;20048;-60
2023/05/01 05:45:11;;;;;;;81.07;25.05;;;;;;;;;;5052662;28;20026;-60
2023/05/01 05:47:37;;;;;;;87.53;25.02;;;;;;;;;;5051415;28;20028;-61
2023/05/01 05:50:03;;;;;;;85.13;23.92;;;;;;;;;;5072937;28;20024;-61
2023/05/01 05:52:30;;;;;;;77.68;23.85;;;;;;;;;;5072175;28;20042;-61
2023/05/01 05:54:56;;;;;;;77.00;21.65;;;;;;;;;;5072139;28;20477;-61
2023/05/01 05:57:22;;;;;;;67.35;20.42;;;;;;;;;;5071282;28;20050;-60
2023/05/01 05:59:48;;;;;;;70.88;22.85;;;;;;;;;;5054785;28;20062;-60
2023/05/01 06:02:15;;;;;;;67.00;21.60;;;;;;;;;;5052471;28;20025;-61
2023/05/01 06:04:41;;;;;;;68.25;20.60;;;;;;;;;;5052795;28;20028;-61
2023/05/01 06:07:07;;;;;;;59.65;19.35;;;;;;;;;;5052462;28;20025;-61
2023/05/01 06:09:34;;;;;;;65.03;19.35;;;;;;;;;;5052454;28;20513;-61
2023/05/01 06:12:00;;;;;;;58.10;18.77;;;;;;;;;;5052065;28;20465;-61
2023/05/01 06:14:26;;;;;;;55.10;18.58;;;;;;;;;;5052248;28;20029;-61
2023/05/01 06:16:53;;;;;;;55.30;18.35;;;;;;;;;;5052106;28;20131;-60
2023/05/01 06:19:19;;;;;;;56.80;18.80;;;;;;;;;;5052098;28;20033;-61
2023/05/01 06:21:45;;;;;;;45.38;17.23;;;;;;;;;;5052194;28;20028;-61
2023/05/01 06:24:12;;;;;;;51.55;17.17;;;;;;;;;;5051965;28;20025;-61
2023/05/01 06:26:38;;;;;;;45.53;18.10;;;;;;;;;;5059067;28;20039;-62
2023/05/01 06:29:04;;;;;;;51.75;17.10;;;;;;;;;;5063964;28;20067;-61
2023/05/01 06:31:30;;;;;;;43.58;16.50;;;;;;;;;;5060636;28;20025;-61
2023/05/01 06:33:56;;;;;;;48.38;16.88;;;;;;;;;;5071996;28;20021;-61
2023/05/01 06:36:22;;;;;;;42.15;16.90;;;;;;;;;;5071389;28;20035;-61
2023/05/01 06:38:48;;;;;;;48.50;16.85;;;;;;;;;;5071794;28;20095;-62
2023/05/01 06:41:16;;;;;;;45.75;16.55;;;;;;;;;;5070423;28;20489;-61
2023/05/01 06:43:42;;;;;;;42.47;15.65;;;;;;;;;;5071706;28;20035;-59
2023/05/01 06:46:09;;;;;;;37.13;14.60;;;;;;;;;;5071254;28;20024;-60
2023/05/01 06:48:35;;;;;;;38.17;15.43;;;;;;;;;;5071531;28;20020;-60
2023/05/01 06:51:01;;;;;;;34.30;13.07;;;;;;;;;;5071315;28;20013;-61
2023/05/01 06:53:27;;;;;;;32.25;12.50;;;;;;;;;;5071478;28;20048;-61
2023/05/01 06:55:53;;;;;;;24.80;10.80;;;;;;;;;;5071023;28;20501;-61
2023/05/01 06:58:19;;;;;;;27.60;11.07;;;;;;;;;;5071265;28;20037;-61
2023/05/01 07:00:45;;;;;;;25.50;10.63;;;;;;;;;;5071239;28;20058;-61
2023/05/01 07:03:11;;;;;;;19.55;8.85;;;;;;;;;;5071557;28;20020;-62
2023/05/01 07:05:39;;;;;;;23.33;8.40;;;;;;;;;;5071257;28;20028;-61
2023/05/01 07:08:06;;;;;;;16.38;7.55;;;;;;;;;;5050858;28;20107;-62
2023/05/01 07:10:32;;;;;;;15.07;6.22;;;;;;;;;;5051493;28;20025;-62
2023/05/01 07:12:59;;;;;;;15.15;6.75;;;;;;;;;;5068878;28;20115;-62
2023/05/01 07:15:25;;;;;;;18.48;7.68;;;;;;;;;;5071204;28;20032;-61
2023/05/01 07:17:51;;;;;;;21.13;7.43;;;;;;;;;;5070979;28;20028;-60
2023/05/01 07:20:17;;;;;;;22.10;7.05;;;;;;;;;;5070947;28;20068;-59
2023/05/01 07:22:43;;;;;;;19.80;9.02;;;;;;;;;;5066819;28;20070;-60
2023/05/01 07:25:10;;;;;;;22.00;9.45;;;;;;;;;;5069142;28;20600;-62
2023/05/01 07:27:36;;;;;;;25.95;9.38;;;;;;;;;;5071136;28;20031;-60
2023/05/01 07:30:03;;;;;;;22.17;8.98;;;;;;;;;;5069696;28;20500;-62
2023/05/01 07:32:31;;;;;;;20.40;9.05;;;;;;;;;;5070594;28;20413;-62
2023/05/01 07:34:58;;;;;;;14.95;6.85;;;;;;;;;;5071022;28;20523;-61
2023/05/01 07:37:25;;;;;;;22.77;8.25;;;;;;;;;;5069965;28;20020;-60
2023/05/01 07:39:52;;;;;;;19.58;8.00;;;;;;;;;;5068909;28;20044;-60
2023/05/01 07:42:18;;;;;;;16.33;7.20;;;;;;;;;;5070812;28;20020;-60
2023/05/01 07:44:44;;;;;;;14.05;7.13;;;;;;;;;;5071006;28;20024;-60
2023/05/01 07:47:10;;;;;;;17.15;7.55;;;;;;;;;;5070956;28;20021;-59
2023/05/01 07:49:37;;;;;;;16.00;7.32;;;;;;;;;;5070989;28;20028;-59
2023/05/01 07:52:04;;;;;;;12.65;6.40;;;;;;;;;;5071333;28;20028;-61
2023/05/01 07:54:30;;;;;;;16.13;6.35;;;;;;;;;;5073741;28;20455;-59
2023/05/01 07:56:56;;;;;;;12.48;6.03;;;;;;;;;;5074912;28;20036;-59
2023/05/01 07:59:22;;;;;;;17.55;6.38;;;;;;;;;;5074093;28;20020;-60
2023/05/01 08:01:48;;;;;;;13.13;6.00;;;;;;;;;;5073878;28;20068;-59
2023/05/01 08:04:15;;;;;;;14.93;6.68;;;;;;;;;;5074710;28;20020;-58
2023/05/01 08:06:42;;;;;;;17.30;6.20;;;;;;;;;;5074359;28;20098;-59
2023/05/01 08:09:08;;;;;;;16.13;5.35;;;;;;;;;;5074410;28;20491;-59
2023/05/01 08:11:34;;;;;;;16.83;5.93;;;;;;;;;;5074392;28;20024;-59
2023/05/01 08:14:00;;;;;;;17.77;6.68;;;;;;;;;;5073575;28;20025;-59
2023/05/01 08:16:26;;;;;;;17.52;6.70;;;;;;;;;;5074295;28;20415;-60
2023/05/01 08:18:52;;;;;;;19.40;6.22;;;;;;;;;;5073381;28;20044;-60
2023/05/01 08:21:18;;;;;;;17.45;6.88;;;;;;;;;;5073455;28;20476;-60
2023/05/01 08:23:44;;;;;;;19.30;5.80;;;;;;;;;;5074402;28;20021;-60
2023/05/01 08:26:10;;;;;;;10.98;5.57;;;;;;;;;;5074062;28;20048;-58
2023/05/01 08:28:36;;;;;;;15.70;5.22;;;;;;;;;;5072959;28;20532;-58
2023/05/01 08:31:03;;;;;;;12.48;5.50;;;;;;;;;;5073126;28;20512;-59
2023/05/01 08:33:29;;;;;;;14.27;4.93;;;;;;;;;;5073151;28;20472;-59
2023/05/01 08:35:55;;;;;;;9.40;4.75;;;;;;;;;;5074306;28;20032;-59
2023/05/01 08:38:21;;;;;;;13.48;4.90;;;;;;;;;;5073814;28;20028;-59
2023/05/01 08:40:52;;;;;;;12.38;5.22;;;;;;;;;;5073916;28;20036;-59
2023/05/01 08:43:18;;;;;;;12.70;5.10;;;;;;;;;;5073072;28;20062;-60
2023/05/01 08:45:46;;;;;;;13.18;5.20;;;;;;;;;;5072935;28;20025;-59
2023/05/01 08:48:13;;;;;;;12.60;5.43;;;;;;;;;;5073581;28;20113;-59
2023/05/01 08:50:40;;;;;;;13.25;5.53;;;;;;;;;;5072478;28;20016;-58
2023/05/01 08:53:08;;;;;;;9.13;4.55;;;;;;;;;;5073258;28;20468;-59
2023/05/01 08:55:34;;;;;;;15.35;6.00;;;;;;;;;;5073598;28;20028;-59
2023/05/01 08:58:02;;;;;;;16.75;5.63;;;;;;;;;;5073308;28;20021;-59
2023/05/01 09:00:29;;;;;;;13.95;5.00;;;;;;;;;;5073480;28;20128;-60
2023/05/01 09:02:57;;;;;;;10.60;4.70;;;;;;;;;;5071598;28;20670;-58
2023/05/01 09:05:23;;;;;;;13.77;4.53;;;;;;;;;;5072624;28;20039;-59
2023/05/01 09:07:49;;;;;;;14.48;4.88;;;;;;;;;;5073609;28;20070;-60
2023/05/01 09:10:17;;;;;;;12.02;4.43;;;;;;;;;;5072909;28;20047;-58
2023/05/01 09:12:45;;;;;;;13.85;5.18;;;;;;;;;;5072655;28;20025;-58
2023/05/01 09:15:12;;;;;;;19.45;5.05;;;;;;;;;;5072782;28;20499;-59
2023/05/01 09:17:39;;;;;;;7.47;4.07;;;;;;;;;;5073284;28;20032;-60
2023/05/01 09:20:06;;;;;;;15.98;5.88;;;;;;;;;;5073167;28;20047;-59
2023/05/01 09:22:33;;;;;;;14.07;5.28;;;;;;;;;;5073195;28;20027;-58
2023/05/01 09:24:59;;;;;;;11.40;4.85;;;;;;;;;;5073392;28;20025;-60
2023/05/01 09:27:26;;;;;;;9.63;4.75;;;;;;;;;;5073293;28;20348;-59
2023/05/01 09:29:52;;;;;;;10.30;4.95;;;;;;;;;;5072005;28;20462;-60
2023/05/01 09:32:20;;;;;;;11.55;5.07;;;;;;;;;;5062781;28;20024;-58
2023/05/01 09:34:49;;;;;;;13.68;5.30;;;;;;;;;;5072999;28;20524;-59
2023/05/01 09:37:28;;;;;;;12.60;4.95;;;;;;;;;;5066119;28;20017;-61
2023/05/01 09:40:04;;;;;;;12.13;4.82;;;;;;;;;;5055905;28;20024;-61
2023/05/01 09:42:33;;;;;;;15.65;6.55;;;;;;;;;;5072600;28;20020;-61
2023/05/01 09:45:00;;;;;;;14.00;5.68;;;;;;;;;;5072464;28;20477;-60
2023/05/01 09:47:27;;;;;;;14.52;4.70;;;;;;;;;;5072881;28;20032;-61
2023/05/01 09:49:54;;;;;;;14.93;5.03;;;;;;;;;;5072234;28;20032;-60
2023/05/01 09:52:20;;;;;;;11.77;4.57;;;;;;;;;;5071014;28;20063;-60
2023/05/01 09:54:46;;;;;;;10.20;4.57;;;;;;;;;;5072206;28;20021;-60
2023/05/01 09:57:12;;;;;;;12.23;4.60;;;;;;;;;;5071859;28;20089;-61
2023/05/01 09:59:38;;;;;;;10.43;4.43;;;;;;;;;;5071746;28;20048;-60
2023/05/01 10:02:05;;;;;;;14.60;4.28;;;;;;;;;;5071949;28;20515;-61
2023/05/01 10:04:31;;;;;;;8.80;4.45;;;;;;;;;;5071983;28;20095;-61
2023/05/01 10:06:58;;;;;;;11.80;4.47;;;;;;;;;;5072300;28;20025;-60
2023/05/01 10:09:31;;;;;;;9.23;4.10;;;;;;;;;;5072182;28;20043;-61
2023/05/01 10:11:57;;;;;;;12.45;4.35;;;;;;;;;;5071991;28;20427;-61
2023/05/01 10:14:25;;;;;;;10.93;4.65;;;;;;;;;;5072128;28;20233;-62
2023/05/01 10:16:51;;;;;;;13.13;4.32;;;;;;;;;;5072087;28;20024;-61
2023/05/01 10:19:17;;;;;;;14.20;4.78;;;;;;;;;;5071914;28;20024;-59
2023/05/01 10:21:44;;;;;;;10.05;4.60;;;;;;;;;;5072083;28;20024;-59
2023/05/01 10:24:10;;;;;;;12.40;4.40;;;;;;;;;;5071526;28;20035;-58
2023/05/01 10:26:36;;;;;;;10.82;4.43;;;;;;;;;;5070817;28;20119;-59
2023/05/01 10:29:03;;;;;;;9.65;4.25;;;;;;;;;;5071792;28;20534;-59
2023/05/01 10:31:31;;;;;;;7.55;4.10;;;;;;;;;;5071805;28;20100;-60
2023/05/01 10:33:59;;;;;;;8.05;3.50;;;;;;;;;;5071796;28;20537;-60
2023/05/01 10:36:27;;;;;;;11.18;3.85;;;;;;;;;;5071815;28;20127;-59
2023/05/01 10:38:53;;;;;;;12.68;4.72;;;;;;;;;;5071743;28;20433;-59
2023/05/01 10:41:52;;;;;;;10.55;4.72;;;;;;;;;;5070058;28;20645;-59
2023/05/01 10:44:23;;;;;;;32.80;20.83;;;;;;;;;;5071504;28;20032;-60
2023/05/01 10:46:49;;;;;;;;;;;;;;;;;;5071944;28;20052;-59
2023/05/01 10:49:16;;;;;;;15.60;4.38;;;;;;;;;;5071564;28;19936;-61
2023/05/01 10:51:57;;;;;;;10.20;3.63;;;;;;;;;;5071642;28;20040;-61
2023/05/01 10:54:32;;;;;;;10.17;3.47;;;;;;;;;;5071520;28;20021;-60
2023/05/01 10:57:00;;;;;;;12.73;3.90;;;;;;;;;;5071546;28;20261;-59
2023/05/01 10:59:26;;;;;;;7.03;3.65;;;;;;;;;;5070058;28;20055;-60
2023/05/01 11:01:53;;;;;;;9.65;3.72;;;;;;;;;;5071368;28;20432;-58
2023/05/01 11:04:22;;;;;;;7.70;3.45;;;;;;;;;;5071186;28;20595;-59
2023/05/01 11:07:06;;;;;;;6.25;3.33;;;;;;;;;;5071603;28;20021;-58
2023/05/01 11:09:36;;;;;;;10.73;3.63;;;;;;;;;;5071524;28;20024;-58
2023/05/01 11:12:02;;;;;;;6.80;3.05;;;;;;;;;;5070860;28;20468;-57
2023/05/01 11:14:48;;;;;;;6.72;3.03;;;;;;;;;;5071399;28;20027;-59
2023/05/01 11:17:34;;;;;;;9.00;3.10;;;;;;;;;;5070982;28;20477;-58
2023/05/01 11:20:00;;;;;;;7.13;2.45;;;;;;;;;;5070916;28;20403;-59
2023/05/01 11:22:26;;;;;;;5.75;2.65;;;;;;;;;;5071178;28;20461;-58
2023/05/01 11:24:52;;;;;;;6.97;3.30;;;;;;;;;;5071203;28;20107;-58
2023/05/01 11:27:18;;;;;;;7.65;3.53;;;;;;;;;;5070760;28;20029;-58
2023/05/01 11:29:45;;;;;;;8.23;3.40;;;;;;;;;;5070853;28;20053;-59
2023/05/01 11:32:15;;;;;;;8.02;3.08;;;;;;;;;;5071102;28;20031;-60
2023/05/01 11:34:41;;;;;;;8.45;3.50;;;;;;;;;;5070929;28;20024;-59
2023/05/01 11:37:07;;;;;;;6.95;3.10;;;;;;;;;;5071104;28;20630;-59
2023/05/01 11:39:34;;;;;;;4.65;2.50;;;;;;;;;;5070856;28;20024;-60
2023/05/01 11:42:07;;;;;;;9.10;2.92;;;;;;;;;;5070694;28;20115;-59
2023/05/01 11:44:33;;;;;;;4.80;2.10;;;;;;;;;;5070789;28;20058;-59
2023/05/01 11:47:01;;;;;;;2.53;1.77;;;;;;;;;;5070809;28;20020;-60
2023/05/01 11:49:27;;;;;;;6.70;2.65;;;;;;;;;;5070925;28;20028;-60
2023/05/01 11:51:59;;;;;;;11.07;3.60;;;;;;;;;;5070887;28;20062;-59
2023/05/01 11:54:26;;;;;;;10.00;3.40;;;;;;;;;;5070618;28;20024;-59
2023/05/01 11:56:59;;;;;;;9.05;3.45;;;;;;;;;;5070778;28;20025;-59
2023/05/01 11:59:26;;;;;;;7.30;3.17;;;;;;;;;;5070847;28;20023;-59
2023/05/01 12:01:52;;;;;;;9.15;3.85;;;;;;;;;;5070692;28;20497;-60
2023/05/01 12:04:26;;;;;;;12.32;3.60;;;;;;;;;;5070886;28;20070;-58
2023/05/01 12:06:52;;;;;;;12.07;3.40;;;;;;;;;;5070654;28;20044;-60
2023/05/01 12:09:19;;;;;;;10.10;3.83;;;;;;;;;;5070966;28;20024;-59
2023/05/01 12:11:47;;;;;;;8.45;4.10;;;;;;;;;;5070444;28;20029;-59
2023/05/01 12:14:16;;;;;;;17.67;4.75;;;;;;;;;;5070663;28;20029;-59
2023/05/01 12:16:42;;;;;;;14.50;5.18;;;;;;;;;;5070679;28;20033;-59
2023/05/01 12:19:10;;;;;;;10.07;4.35;;;;;;;;;;5070563;28;20044;-59
2023/05/01 12:21:37;;;;;;;15.00;4.88;;;;;;;;;;5070807;28;20164;-59
2023/05/01 12:24:16;;;;;;;19.17;5.45;;;;;;;;;;5069717;28;20055;-60
2023/05/01 12:26:45;;;;;;;11.45;4.28;;;;;;;;;;5052980;28;20033;-59
2023/05/01 12:29:11;;;;;;;9.25;3.75;;;;;;;;;;5049968;28;20087;-60
2023/05/01 12:31:45;;;;;;;11.32;4.38;;;;;;;;;;5056572;28;20481;-58
2023/05/01 12:34:12;;;;;;;14.82;4.75;;;;;;;;;;5070517;28;20090;-59
2023/05/01 12:36:38;;;;;;;9.45;4.20;;;;;;;;;;5070395;28;20028;-59
2023/05/01 12:39:08;;;;;;;8.45;4.00;;;;;;;;;;5071307;28;20377;-59
2023/05/01 12:41:47;;;;;;;13.88;3.60;;;;;;;;;;5073506;28;20072;-58
2023/05/01 12:44:19;;;;;;;13.23;4.30;;;;;;;;;;5074006;28;20029;-58
2023/05/01 12:46:52;;;;;;;14.07;4.55;;;;;;;;;;5073860;28;20032;-59
2023/05/01 12:49:18;;;;;;;9.05;4.07;;;;;;;;;;5073805;28;20104;-60
2023/05/01 12:51:48;;;;;;;16.50;3.95;;;;;;;;;;5073836;28;20020;-59
2023/05/01 12:54:24;;;;;;;12.95;4.53;;;;;;;;;;5074057;28;20029;-58
2023/05/01 12:56:54;;;;;;;8.48;3.45;;;;;;;;;;5074142;28;20036;-59
2023/05/01 12:59:21;;;;;;;8.60;3.13;;;;;;;;;;5072527;28;20024;-60
2023/05/01 13:01:47;;;;;;;11.82;4.18;;;;;;;;;;5073780;28;20033;-59
2023/05/01 13:04:20;;;;;;;9.55;3.30;;;;;;;;;;5073822;28;20024;-60
2023/05/01 13:06:46;;;;;;;11.95;3.35;;;;;;;;;;5073985;28;20029;-59
2023/05/01 13:09:14;;;;;;;11.43;3.75;;;;;;;;;;5073594;28;20021;-59
2023/05/01 13:11:40;;;;;;;8.60;3.75;;;;;;;;;;5073370;28;20568;-59
2023/05/01 13:14:07;;;;;;;8.70;4.10;;;;;;;;;;5073470;28;20119;-58
2023/05/01 13:16:33;;;;;;;9.63;3.97;;;;;;;;;;5072046;28;20028;-59
2023/05/01 13:19:00;;;;;;;6.95;3.50;;;;;;;;;;5073338;28;20116;-58
2023/05/01 13:21:26;;;;;;;7.70;2.95;;;;;;;;;;5073216;28;20629;-59
2023/05/01 13:23:54;;;;;;;8.88;3.72;;;;;;;;;;5073281;28;20023;-58
2023/05/01 13:26:31;;;;;;;8.20;3.22;;;;;;;;;;5073233;28;20032;-58
2023/05/01 13:28:58;;;;;;;7.43;3.00;;;;;;;;;;5073094;28;20052;-60
2023/05/01 13:31:24;;;;;;;5.35;2.50;;;;;;;;;;5073139;28;20028;-60
2023/05/01 13:33:51;;;;;;;6.65;2.50;;;;;;;;;;5073066;28;20025;-58
2023/05/01 13:36:17;;;;;;;4.18;1.80;;;;;;;;;;5073409;28;20024;-59
2023/05/01 13:38:45;;;;;;;8.05;2.80;;;;;;;;;;5073169;28;20060;-59
2023/05/01 13:41:20;;;;;;;8.00;2.60;;;;;;;;;;5072935;28;20036;-58
2023/05/01 13:43:51;;;;;;;10.82;2.47;;;;;;;;;;5073165;28;20158;-59
2023/05/01 13:46:18;;;;;;;6.68;1.90;;;;;;;;;;5072951;28;20028;-59
2023/05/01 13:48:45;;;;;;;4.40;2.22;;;;;;;;;;5072861;28;20052;-59
2023/05/01 13:51:12;;;;;;;7.18;2.35;;;;;;;;;;5072691;28;20048;-58
2023/05/01 13:53:39;;;;;;;2.75;1.67;;;;;;;;;;5072742;28;20497;-59
2023/05/01 13:56:05;;;;;;;7.55;2.33;;;;;;;;;;5072552;28;20017;-60
2023/05/01 13:58:35;;;;;;;10.20;2.40;;;;;;;;;;5072770;28;20024;-60
2023/05/01 14:01:02;;;;;;;5.05;1.52;;;;;;;;;;5072634;28;20055;-59
2023/05/01 14:03:31;;;;;;;5.88;1.48;;;;;;;;;;5072706;28;20017;-58
2023/05/01 14:05:57;;;;;;;7.35;2.42;;;;;;;;;;5072634;28;20052;-61
2023/05/01 14:08:26;;;;;;;16.42;2.22;;;;;;;;;;5071089;28;20433;-73
2023/05/01 14:10:52;;;;;;;4.10;2.15;;;;;;;;;;5072453;28;20108;-72
2023/05/01 14:13:18;;;;;;;1.90;1.25;;;;;;;;;;5072398;28;20143;-65
2023/05/01 14:15:45;;;;;;;0.65;0.50;;;;;;;;;;5071537;28;20477;-66
2023/05/01 14:18:18;;;;;;;2.15;0.65;;;;;;;;;;5056749;28;20555;-65
2023/05/01 14:20:49;;;;;;;4.85;0.90;;;;;;;;;;5051881;28;20163;-65
2023/05/01 14:23:19;;;;;;;3.30;1.00;;;;;;;;;;5051902;28;20025;-66
2023/05/01 14:25:47;;;;;;;3.00;1.35;;;;;;;;;;5052170;28;20028;-67